createdAt,value
2019-02-06T00:01:33.735Z,15.57
2019-02-06T00:04:06.331Z,13.37
2019-02-06T00:06:40.671Z,13.83
2019-02-06T00:09:15.148Z,13.30
2019-02-06T00:11:47.962Z,13.63
2019-02-06T00:14:20.524Z,13.80
2019-02-06T00:16:52.942Z,12.73
2019-02-06T00:19:25.387Z,13.00
2019-02-06T00:21:57.820Z,13.43
2019-02-06T00:24:30.040Z,13.47
2019-02-06T00:27:02.414Z,13.23
2019-02-06T00:29:35.389Z,13.73
2019-02-06T00:32:07.739Z,14.00
2019-02-06T00:34:40.098Z,14.00
2019-02-06T00:37:12.327Z,14.93
2019-02-06T00:39:45.609Z,14.38
2019-02-06T00:42:18.412Z,14.00
2019-02-06T00:44:50.728Z,14.90
2019-02-06T00:47:23.062Z,13.27
2019-02-06T00:49:55.355Z,13.70
2019-02-06T00:52:27.641Z,13.17
2019-02-06T00:55:00.342Z,13.63
2019-02-06T00:57:32.568Z,13.20
2019-02-06T01:00:07.396Z,13.83
2019-02-06T01:02:39.805Z,14.60
2019-02-06T01:05:14.117Z,14.10
2019-02-06T01:07:48.041Z,13.80
2019-02-06T01:10:20.639Z,13.20
2019-02-06T01:12:55.020Z,14.13
2019-02-06T01:15:31.622Z,13.20
2019-02-06T01:18:05.297Z,14.37
2019-02-06T01:20:38.773Z,13.90
2019-02-06T01:23:11.144Z,14.43
2019-02-06T01:25:44.783Z,14.23
2019-02-06T01:28:22.802Z,13.57
2019-02-06T01:30:58.764Z,14.37
2019-02-06T01:33:31.022Z,14.73
2019-02-06T01:36:03.244Z,13.47
2019-02-06T01:38:43.239Z,14.47
2019-02-06T01:41:15.508Z,14.60
2019-02-06T01:43:48.198Z,14.57
2019-02-06T01:46:20.537Z,14.60
2019-02-06T01:48:52.871Z,14.07
2019-02-06T01:51:25.492Z,14.23
2019-02-06T01:53:57.808Z,14.00
2019-02-06T01:56:30.056Z,19.43
2019-02-06T01:59:02.333Z,14.67
2019-02-06T02:01:36.193Z,14.87
2019-02-06T02:04:09.788Z,14.90
2019-02-06T02:06:42.130Z,13.50
2019-02-06T02:09:19.743Z,13.60
2019-02-06T02:11:52.137Z,14.27
2019-02-06T02:14:24.662Z,14.10
2019-02-06T02:16:56.986Z,14.27
2019-02-06T02:19:29.444Z,13.40
2019-02-06T02:22:02.576Z,18.87
2019-02-06T02:24:34.967Z,19.37
2019-02-06T02:27:07.573Z,16.93
2019-02-06T02:29:40.464Z,14.37
2019-02-06T02:32:12.681Z,13.17
2019-02-06T02:34:45.025Z,13.90
2019-02-06T02:37:17.280Z,13.97
2019-02-06T02:39:49.812Z,13.73
2019-02-06T02:42:22.050Z,13.63
2019-02-06T02:44:55.139Z,13.47
2019-02-06T02:47:27.676Z,13.80
2019-02-06T02:49:59.901Z,14.10
2019-02-06T02:52:32.398Z,13.37
2019-02-06T02:55:08.492Z,13.53
2019-02-06T02:57:42.000Z,13.20
2019-02-06T03:00:17.789Z,13.60
2019-02-06T03:02:56.835Z,13.13
2019-02-06T03:05:31.938Z,13.33
2019-02-06T03:08:06.601Z,12.33
2019-02-06T03:10:45.197Z,12.77
2019-02-06T03:13:17.624Z,13.40
2019-02-06T03:15:49.934Z,12.60
2019-02-06T03:18:22.331Z,13.60
2019-02-06T03:20:56.221Z,13.40
2019-02-06T03:23:28.811Z,13.37
2019-02-06T03:26:01.186Z,13.50
2019-02-06T03:28:35.309Z,12.60
2019-02-06T03:31:07.691Z,12.80
2019-02-06T03:33:46.665Z,13.47
2019-02-06T03:36:18.946Z,12.87
2019-02-06T03:38:51.219Z,13.60
2019-02-06T03:41:26.715Z,12.63
2019-02-06T03:44:04.414Z,13.37
2019-02-06T03:46:38.203Z,12.93
2019-02-06T03:49:10.437Z,12.77
2019-02-06T03:51:42.669Z,13.60
2019-02-06T03:54:16.347Z,12.97
2019-02-06T03:56:48.946Z,12.67
2019-02-06T03:59:28.395Z,12.47
2019-02-06T04:02:00.684Z,12.50
2019-02-06T04:04:35.975Z,12.73
2019-02-06T04:07:08.165Z,12.00
2019-02-06T04:09:40.424Z,12.83
2019-02-06T04:12:12.746Z,13.10
2019-02-06T04:14:44.937Z,12.60
2019-02-06T04:17:17.300Z,13.43
2019-02-06T04:19:49.553Z,12.80
2019-02-06T04:22:21.857Z,12.03
2019-02-06T04:24:57.186Z,12.27
2019-02-06T04:27:31.324Z,12.30
2019-02-06T04:30:05.539Z,13.23
2019-02-06T04:32:37.800Z,12.57
2019-02-06T04:35:11.548Z,11.80
2019-02-06T04:37:43.919Z,12.00
2019-02-06T04:40:18.246Z,12.13
2019-02-06T04:42:51.129Z,12.77
2019-02-06T04:45:23.426Z,12.50
2019-02-06T04:47:55.730Z,13.00
2019-02-06T04:50:28.043Z,13.17
2019-02-06T04:53:00.334Z,12.77
2019-02-06T04:55:33.037Z,12.17
2019-02-06T04:58:05.440Z,12.33
2019-02-06T05:00:37.772Z,12.10
2019-02-06T05:03:10.167Z,12.53
2019-02-06T05:05:42.517Z,11.67
2019-02-06T05:08:15.072Z,12.50
2019-02-06T05:10:47.547Z,12.20
2019-02-06T05:13:19.795Z,11.57
2019-02-06T05:15:52.254Z,11.93
2019-02-06T05:18:24.526Z,11.90
2019-02-06T05:20:57.065Z,11.90
2019-02-06T05:23:29.566Z,11.93
2019-02-06T05:26:02.047Z,12.70
2019-02-06T05:28:34.348Z,12.15
2019-02-06T05:31:06.695Z,12.17
2019-02-06T05:33:39.158Z,13.20
2019-02-06T05:36:11.529Z,13.30
2019-02-06T05:38:43.960Z,13.08
2019-02-06T05:41:16.450Z,14.07
2019-02-06T05:43:48.878Z,13.43
2019-02-06T05:46:21.354Z,12.83
2019-02-06T05:48:53.592Z,14.27
2019-02-06T05:51:25.843Z,13.30
2019-02-06T05:53:58.115Z,13.47
2019-02-06T05:56:30.412Z,13.20
2019-02-06T05:59:02.716Z,13.50
2019-02-06T06:01:35.133Z,12.53
2019-02-06T06:04:07.553Z,12.60
2019-02-06T06:06:39.844Z,12.90
2019-02-06T06:09:12.277Z,11.87
2019-02-06T06:11:44.662Z,12.73
2019-02-06T06:14:18.135Z,12.87
2019-02-06T06:16:50.395Z,12.87
2019-02-06T06:19:23.484Z,12.77
2019-02-06T06:21:55.894Z,13.00
2019-02-06T06:24:28.126Z,13.37
2019-02-06T06:27:00.715Z,13.10
2019-02-06T06:29:32.916Z,13.08
2019-02-06T06:32:05.224Z,13.23
2019-02-06T06:34:37.495Z,12.40
2019-02-06T06:37:09.776Z,13.17
2019-02-06T06:39:42.090Z,12.73
2019-02-06T06:42:14.353Z,12.50
2019-02-06T06:44:46.576Z,12.33
2019-02-06T06:47:18.862Z,11.87
2019-02-06T06:49:51.169Z,13.62
2019-02-06T06:52:23.397Z,12.43
2019-02-06T06:54:55.643Z,12.73
2019-02-06T06:57:27.892Z,12.63
2019-02-06T07:00:00.484Z,12.43
2019-02-06T07:02:32.751Z,12.30
2019-02-06T07:05:05.840Z,13.37
2019-02-06T07:07:38.150Z,12.67
2019-02-06T07:10:12.311Z,13.77
2019-02-06T07:12:45.949Z,13.03
2019-02-06T07:15:20.933Z,12.60
2019-02-06T07:17:53.213Z,12.70
2019-02-06T07:20:25.413Z,11.87
2019-02-06T07:22:57.675Z,12.97
2019-02-06T07:25:29.922Z,13.03
2019-02-06T07:28:02.185Z,12.60
2019-02-06T07:30:35.947Z,12.80
2019-02-06T07:33:08.189Z,12.73
2019-02-06T07:35:40.463Z,12.80
2019-02-06T07:38:23.847Z,13.07
2019-02-06T07:40:47.721Z,13.27
2019-02-06T07:43:20.029Z,13.40
2019-02-06T07:45:52.233Z,13.27
2019-02-06T07:48:24.814Z,14.20
2019-02-06T07:50:57.126Z,13.72
2019-02-06T07:53:29.370Z,14.23
2019-02-06T07:56:01.677Z,14.75
2019-02-06T07:58:33.930Z,14.07
2019-02-06T08:01:06.429Z,13.77
2019-02-06T08:03:38.732Z,14.10
2019-02-06T08:06:10.974Z,13.93
2019-02-06T08:08:43.258Z,14.87
2019-02-06T08:11:15.534Z,14.20
2019-02-06T08:13:47.942Z,14.47
2019-02-06T08:16:20.172Z,14.98
2019-02-06T08:18:53.535Z,13.73
2019-02-06T08:21:25.963Z,13.90
2019-02-06T08:23:58.228Z,13.93
2019-02-06T08:26:31.292Z,13.58
2019-02-06T08:29:03.790Z,14.20
2019-02-06T08:31:36.011Z,14.07
2019-02-06T08:34:08.312Z,14.23
2019-02-06T08:36:40.715Z,14.00
2019-02-06T08:39:12.941Z,14.00
2019-02-06T08:41:45.265Z,13.28
2019-02-06T08:44:17.515Z,13.28
2019-02-06T08:46:49.732Z,13.93
2019-02-06T08:49:22.398Z,13.58
2019-02-06T08:51:54.892Z,12.90
2019-02-06T08:54:27.226Z,13.00
2019-02-06T08:56:59.759Z,13.10
2019-02-06T08:59:32.019Z,11.63
2019-02-06T09:02:04.918Z,12.43
2019-02-06T09:04:37.232Z,11.40
2019-02-06T09:07:14.952Z,11.38
2019-02-06T09:09:47.176Z,11.97
2019-02-06T09:12:19.439Z,11.93
2019-02-06T09:14:51.658Z,11.22
2019-02-06T09:17:24.359Z,11.08
2019-02-06T09:19:56.667Z,10.82
2019-02-06T09:22:29.286Z,10.10
2019-02-06T09:25:01.963Z,10.13
2019-02-06T09:27:34.223Z,10.35
2019-02-06T09:30:07.239Z,9.95
2019-02-06T09:32:39.514Z,10.40
2019-02-06T09:35:12.155Z,9.28
2019-02-06T09:37:44.804Z,9.60
2019-02-06T09:40:20.827Z,8.73
2019-02-06T09:42:53.163Z,9.43
2019-02-06T09:45:25.719Z,10.60
2019-02-06T09:47:58.134Z,10.53
2019-02-06T09:50:32.973Z,10.08
2019-02-06T09:53:05.722Z,9.43
2019-02-06T09:55:38.381Z,9.63
2019-02-06T09:58:10.685Z,10.60
2019-02-06T10:00:43.019Z,10.82
2019-02-06T10:03:16.295Z,11.18
2019-02-06T10:05:48.695Z,11.78
2019-02-06T10:08:20.968Z,13.93
2019-02-06T10:10:53.257Z,12.65
2019-02-06T10:13:25.733Z,11.65
2019-02-06T10:15:58.103Z,10.72
2019-02-06T10:18:30.318Z,11.28
2019-02-06T10:21:02.816Z,9.38
2019-02-06T10:23:35.071Z,11.57
2019-02-06T10:26:07.758Z,11.28
2019-02-06T10:28:40.021Z,11.78
2019-02-06T10:31:12.362Z,12.88
2019-02-06T10:33:45.640Z,12.53
2019-02-06T10:36:17.968Z,11.30
2019-02-06T10:38:50.475Z,11.20
2019-02-06T10:41:22.698Z,12.63
2019-02-06T10:43:55.118Z,11.88
2019-02-06T10:46:27.436Z,10.08
2019-02-06T10:48:59.853Z,10.40
2019-02-06T10:51:32.080Z,10.10
2019-02-06T10:54:04.517Z,10.55
2019-02-06T10:56:36.816Z,10.55
2019-02-06T10:59:09.179Z,11.48
2019-02-06T11:01:41.434Z,11.25
2019-02-06T11:04:13.836Z,12.10
2019-02-06T11:06:46.069Z,10.32
2019-02-06T11:09:18.502Z,9.80
2019-02-06T11:11:50.751Z,11.38
2019-02-06T11:14:23.052Z,12.60
2019-02-06T11:16:55.433Z,12.45
2019-02-06T11:19:27.682Z,12.25
2019-02-06T11:21:59.895Z,13.15
2019-02-06T11:24:32.180Z,10.50
2019-02-06T11:27:04.928Z,11.28
2019-02-06T11:29:37.178Z,8.85
2019-02-06T11:32:09.514Z,9.33
2019-02-06T11:34:44.170Z,9.10
2019-02-06T11:37:16.419Z,9.20
2019-02-06T11:39:57.682Z,8.98
2019-02-06T11:42:26.124Z,9.05
2019-02-06T11:45:01.986Z,10.72
2019-02-06T11:47:36.197Z,11.28
2019-02-06T11:59:56.195Z,10.98
2019-02-06T12:02:36.936Z,10.13
2019-02-06T12:05:02.833Z,10.40
2019-02-06T12:07:35.460Z,10.50
2019-02-06T12:10:10.912Z,10.08
2019-02-06T12:12:43.208Z,9.98
2019-02-06T12:15:17.573Z,11.20
2019-02-06T12:17:50.383Z,12.10
2019-02-06T12:20:22.982Z,12.58
2019-02-06T12:22:55.400Z,12.40
2019-02-06T12:25:27.730Z,13.05
2019-02-06T12:28:00.029Z,12.35
2019-02-06T12:30:33.684Z,11.60
2019-02-06T12:33:06.997Z,11.60
2019-02-06T12:35:39.388Z,11.73
2019-02-06T12:38:11.664Z,11.95
2019-02-06T12:40:45.010Z,12.50
2019-02-06T12:43:18.060Z,12.40
2019-02-06T12:45:50.409Z,11.95
2019-02-06T12:48:23.908Z,12.98
2019-02-06T12:50:56.174Z,12.58
2019-02-06T12:53:28.490Z,12.70
2019-02-06T12:56:01.778Z,13.32
2019-02-06T12:58:34.054Z,13.25
2019-02-06T13:01:06.736Z,12.90
2019-02-06T13:03:38.985Z,14.15
2019-02-06T13:06:11.222Z,13.80
2019-02-06T13:08:43.895Z,13.38
2019-02-06T13:11:16.207Z,13.43
2019-02-06T13:13:48.626Z,13.32
2019-02-06T13:16:23.328Z,13.88
2019-02-06T13:18:55.828Z,14.25
2019-02-06T13:21:28.252Z,14.18
2019-02-06T13:24:00.486Z,14.25
2019-02-06T13:26:32.887Z,14.00
2019-02-06T13:29:05.381Z,14.25
2019-02-06T13:31:38.029Z,14.13
2019-02-06T13:34:10.662Z,13.13
2019-02-06T13:36:42.966Z,13.70
2019-02-06T13:39:15.320Z,13.18
2019-02-06T13:41:48.064Z,13.93
2019-02-06T13:44:20.896Z,14.38
2019-02-06T13:46:53.726Z,16.75
2019-02-06T13:49:26.086Z,15.65
2019-02-06T13:51:58.294Z,15.95
2019-02-06T13:54:32.365Z,16.25
2019-02-06T13:57:05.022Z,15.93
2019-02-06T13:59:38.569Z,16.97
2019-02-06T14:02:10.867Z,15.50
2019-02-06T14:04:43.113Z,15.65
2019-02-06T14:07:15.711Z,15.00
2019-02-06T14:09:48.029Z,16.23
2019-02-06T14:12:20.267Z,14.33
2019-02-06T14:15:00.908Z,14.45
2019-02-06T14:17:33.930Z,14.58
2019-02-06T14:20:09.521Z,15.45
2019-02-06T14:22:42.109Z,16.73
2019-02-06T14:25:22.395Z,17.15
2019-02-06T14:28:30.173Z,17.57
2019-02-06T14:31:55.623Z,16.48
2019-02-06T14:35:03.328Z,16.82
2019-02-06T14:38:28.327Z,16.50
2019-02-06T14:41:16.329Z,16.10
2019-02-06T14:44:24.030Z,16.85
2019-02-06T14:47:25.059Z,15.95
2019-02-06T14:50:20.028Z,15.70
2019-02-06T14:53:42.163Z,16.00
2019-02-06T14:56:55.515Z,15.20
2019-02-06T15:00:26.880Z,15.58
2019-02-06T15:03:23.949Z,14.90
2019-02-06T15:06:53.121Z,15.35
2019-02-06T15:10:00.848Z,15.32
2019-02-06T15:13:17.334Z,14.70
2019-02-06T15:16:17.579Z,17.70
2019-02-06T15:19:49.267Z,21.33
2019-02-06T15:23:32.571Z,19.85
2019-02-06T15:26:50.398Z,17.27
2019-02-06T15:29:40.556Z,17.40
2019-02-06T15:32:42.078Z,15.67
2019-02-06T15:35:37.742Z,16.23
2019-02-06T15:38:39.934Z,17.30
2019-02-06T15:41:48.854Z,18.77
2019-02-06T15:44:27.921Z,19.10
2019-02-06T15:47:49.451Z,24.03
2019-02-06T15:51:21.311Z,20.33
2019-02-06T15:54:38.581Z,17.60
2019-02-06T15:57:45.511Z,18.17
2019-02-06T16:00:59.589Z,17.67
2019-02-06T16:04:22.662Z,18.80
2019-02-06T16:07:28.505Z,17.67
2019-02-06T16:10:36.745Z,18.53
2019-02-06T16:13:24.345Z,17.73
2019-02-06T16:16:24.011Z,18.37
2019-02-06T16:19:50.533Z,18.63
2019-02-06T16:22:45.605Z,21.70
2019-02-06T16:25:38.782Z,21.60
2019-02-06T16:28:41.440Z,18.93
2019-02-06T16:31:33.994Z,21.00
2019-02-06T16:34:26.226Z,20.27
2019-02-06T16:37:39.754Z,20.93
2019-02-06T16:40:59.110Z,19.33
2019-02-06T16:44:10.761Z,19.67
2019-02-06T16:47:19.166Z,19.07
2019-02-06T16:50:11.777Z,20.43
2019-02-06T16:53:27.582Z,20.93
2019-02-06T16:56:31.302Z,21.10
2019-02-06T16:59:47.738Z,22.10
2019-02-06T17:03:12.132Z,22.27
2019-02-06T17:05:51.117Z,27.63
2019-02-06T17:09:02.229Z,25.70
2019-02-06T17:12:04.085Z,25.00
2019-02-06T17:15:14.211Z,25.80
2019-02-06T17:18:35.224Z,25.63
2019-02-06T17:21:51.917Z,24.10
2019-02-06T17:25:17.415Z,20.73
2019-02-06T17:28:21.641Z,20.23
2019-02-06T17:31:21.486Z,20.60
2019-02-06T17:34:40.268Z,19.13
2019-02-06T17:38:07.886Z,17.97
2019-02-06T17:41:20.952Z,18.27
2019-02-06T17:44:36.811Z,19.30
2019-02-06T17:47:44.763Z,18.23
2019-02-06T17:51:12.157Z,18.50
2019-02-06T17:54:26.204Z,20.13
2019-02-06T17:57:06.987Z,19.90
2019-02-06T18:00:16.831Z,20.00
2019-02-06T18:03:41.856Z,20.77
2019-02-06T18:07:27.797Z,22.60
2019-02-06T18:10:07.138Z,28.00
2019-02-06T18:12:39.520Z,29.13
2019-02-06T18:15:15.727Z,26.33
2019-02-06T18:21:02.714Z,21.03
2019-02-06T18:26:49.750Z,21.80
2019-02-06T18:27:14.046Z,20.80
2019-02-06T18:29:23.645Z,22.57
2019-02-06T18:32:46.294Z,21.20
2019-02-06T18:35:24.107Z,25.20
2019-02-06T18:37:57.221Z,33.83
2019-02-06T18:40:35.188Z,31.20
2019-02-06T18:43:07.792Z,32.70
2019-02-06T18:45:40.539Z,30.90
2019-02-06T18:48:17.032Z,29.17
2019-02-06T18:50:51.282Z,30.03
2019-02-06T18:53:25.910Z,31.03
2019-02-06T18:55:58.538Z,35.60
2019-02-06T18:58:32.631Z,46.43
2019-02-06T19:01:06.123Z,52.67
2019-02-06T19:03:43.951Z,60.00
2019-02-06T19:06:24.759Z,43.17
2019-02-06T19:09:16.498Z,35.07
2019-02-06T19:11:57.929Z,37.17
2019-02-06T19:14:39.022Z,42.63
2019-02-06T19:17:14.948Z,38.77
2019-02-06T19:19:54.450Z,39.80
2019-02-06T19:22:34.445Z,41.20
2019-02-06T19:25:07.218Z,38.53
2019-02-06T19:27:39.615Z,37.23
2019-02-06T19:30:20.365Z,36.83
2019-02-06T19:32:52.803Z,35.00
2019-02-06T19:35:25.134Z,34.17
2019-02-06T19:38:07.727Z,33.50
2019-02-06T19:40:34.762Z,29.90
2019-02-06T19:43:09.694Z,28.47
2019-02-06T19:45:43.742Z,29.40
2019-02-06T19:48:21.668Z,27.77
2019-02-06T19:50:54.658Z,25.90
2019-02-06T19:53:27.010Z,24.90
2019-02-06T19:55:59.372Z,29.20
2019-02-06T19:58:33.434Z,27.30
2019-02-06T20:01:07.485Z,27.77
2019-02-06T20:03:39.790Z,29.13
2019-02-06T20:06:31.112Z,30.10
2019-02-06T20:09:08.458Z,26.73
2019-02-06T20:11:42.018Z,29.87
2019-02-06T20:14:17.906Z,39.30
2019-02-06T20:17:00.154Z,39.50
2019-02-06T20:23:34.726Z,34.30
2019-02-06T20:26:13.537Z,34.13
2019-02-06T20:28:58.794Z,28.97
2019-02-06T20:31:33.521Z,28.27
2019-02-06T20:34:10.878Z,28.27
2019-02-06T20:36:44.687Z,29.90
2019-02-06T20:39:18.488Z,30.90
2019-02-06T20:41:50.859Z,30.77
2019-02-06T20:44:23.272Z,30.87
2019-02-06T20:46:55.973Z,28.30
2019-02-06T20:49:29.887Z,25.63
2019-02-06T20:52:02.270Z,27.43
2019-02-06T20:54:34.562Z,28.33
2019-02-06T20:57:13.510Z,27.17
2019-02-06T20:59:41.108Z,31.23
2019-02-06T21:02:13.705Z,29.63
2019-02-06T21:04:47.119Z,29.00
2019-02-06T21:07:20.474Z,29.50
2019-02-06T21:09:52.733Z,31.23
2019-02-06T21:12:24.958Z,32.43
2019-02-06T21:14:57.586Z,32.10
2019-02-06T21:17:29.966Z,33.60
2019-02-06T21:20:02.227Z,33.23
2019-02-06T21:22:34.826Z,32.17
2019-02-06T21:25:09.611Z,32.50
2019-02-06T21:27:42.757Z,35.37
2019-02-06T21:30:20.349Z,30.70
2019-02-06T21:32:53.430Z,34.27
2019-02-06T21:35:25.668Z,33.50
2019-02-06T21:37:57.895Z,33.57
2019-02-06T21:40:31.947Z,33.10
2019-02-06T21:43:04.830Z,33.47
2019-02-06T21:45:37.375Z,31.67
2019-02-06T21:48:09.639Z,31.33
2019-02-06T21:50:42.253Z,29.87
2019-02-06T21:53:14.515Z,31.67
2019-02-06T21:55:47.593Z,30.77
2019-02-06T21:58:19.964Z,30.57
2019-02-06T22:00:52.418Z,30.20
2019-02-06T22:03:29.452Z,31.47
2019-02-06T22:06:06.670Z,31.90
2019-02-06T22:08:40.925Z,32.47
2019-02-06T22:11:15.071Z,30.20
2019-02-06T22:13:54.975Z,33.53
2019-02-06T22:16:21.543Z,32.53
2019-02-06T22:18:53.812Z,29.57
2019-02-06T22:21:29.198Z,28.57
2019-02-06T22:24:01.628Z,27.33
2019-02-06T22:26:37.090Z,27.50
2019-02-06T22:29:09.538Z,26.77
2019-02-06T22:31:42.459Z,27.70
2019-02-06T22:34:15.069Z,27.50
2019-02-06T22:36:47.434Z,28.30
2019-02-06T22:39:19.680Z,26.67
2019-02-06T22:41:52.034Z,27.47
2019-02-06T22:44:24.867Z,27.57
2019-02-06T22:46:57.788Z,26.37
2019-02-06T22:49:30.200Z,26.43
2019-02-06T22:52:02.619Z,27.30
2019-02-06T22:54:35.042Z,27.67
2019-02-06T22:57:07.360Z,26.50
2019-02-06T22:59:39.742Z,27.27
2019-02-06T23:02:12.274Z,26.13
2019-02-06T23:04:44.668Z,25.07
2019-02-06T23:07:17.022Z,27.50
2019-02-06T23:09:49.288Z,28.23
2019-02-06T23:12:21.673Z,30.00
2019-02-06T23:14:54.268Z,31.10
2019-02-06T23:17:26.611Z,30.83
2019-02-06T23:19:58.880Z,29.40
2019-02-06T23:22:31.375Z,28.53
2019-02-06T23:25:04.476Z,27.67
2019-02-06T23:27:40.041Z,25.90
2019-02-06T23:30:12.607Z,26.40
2019-02-06T23:32:45.070Z,27.03
2019-02-06T23:35:17.387Z,27.90
2019-02-06T23:37:49.738Z,28.80
2019-02-06T23:40:22.182Z,27.30
2019-02-06T23:42:54.556Z,29.27
2019-02-06T23:45:27.097Z,28.57
2019-02-06T23:48:00.471Z,28.20
2019-02-06T23:50:32.970Z,28.13
2019-02-06T23:53:06.490Z,27.90
2019-02-06T23:55:38.706Z,28.87
2019-02-06T23:58:11.004Z,28.53
